Time;durP1;ratioP1;P1;durP2;ratioP2;P2;SDS_P1;SDS_P2;PMS_P1;PMS_P2;Temp;Humidity;BMP_temperature;BMP_pressure;BME280_temperature;BME280_humidity;BME280_pressure;Samples;Min_cycle;Max_cycle;Signal;HPM_P1;HPM_P2
2022/12/10 00:00:23;;;;;;;57.58;43.20;;;;;;;;;;5032585;28;20036;-77
2022/12/10 00:02:48;;;;;;;55.33;39.75;;;;;;;;;;5028302;28;20032;-74
2022/12/10 00:05:13;;;;;;;62.05;43.95;;;;;;;;;;5037615;28;20327;-77
2022/12/10 00:07:39;;;;;;;73.13;46.25;;;;;;;;;;5032373;28;21206;-76
2022/12/10 00:10:04;;;;;;;51.70;33.85;;;;;;;;;;5030857;28;20033;-75
2022/12/10 00:12:29;;;;;;;38.42;28.65;;;;;;;;;;5034300;28;20025;-74
2022/12/10 00:14:55;;;;;;;60.97;39.47;;;;;;;;;;5033864;28;20025;-76
2022/12/10 00:17:20;;;;;;;64.88;42.15;;;;;;;;;;5036217;28;20017;-78
2022/12/10 00:19:45;;;;;;;105.13;67.72;;;;;;;;;;5024901;28;20120;-77
2022/12/10 00:22:11;;;;;;;84.88;51.03;;;;;;;;;;5037307;28;20459;-80
2022/12/10 00:24:36;;;;;;;64.47;46.10;;;;;;;;;;5030810;28;20553;-77
2022/12/10 00:27:01;;;;;;;61.00;45.47;;;;;;;;;;5030149;28;21198;-76
2022/12/10 00:29:27;;;;;;;127.32;55.92;;;;;;;;;;5037243;28;20025;-76
2022/12/10 00:31:52;;;;;;;55.72;42.00;;;;;;;;;;5029486;28;20032;-76
2022/12/10 00:34:17;;;;;;;98.70;53.63;;;;;;;;;;5035047;28;20043;-75
2022/12/10 00:36:45;;;;;;;136.80;56.08;;;;;;;;;;5026573;28;20025;-76
2022/12/10 00:39:12;;;;;;;64.00;40.72;;;;;;;;;;5026375;28;20037;-76
2022/12/10 00:41:37;;;;;;;87.53;45.42;;;;;;;;;;5034638;28;20032;-75
2022/12/10 00:44:03;;;;;;;75.15;38.28;;;;;;;;;;5036496;28;20025;-76
2022/12/10 00:46:28;;;;;;;108.78;49.58;;;;;;;;;;5035541;28;20035;-76
2022/12/10 00:48:54;;;;;;;64.40;41.63;;;;;;;;;;5036945;28;20033;-75
2022/12/10 00:51:21;;;;;;;41.90;31.40;;;;;;;;;;5036080;28;21108;-78
2022/12/10 00:53:48;;;;;;;64.50;36.15;;;;;;;;;;5028561;28;20033;-76
2022/12/10 00:56:14;;;;;;;48.60;31.77;;;;;;;;;;5036502;28;20033;-75
2022/12/10 00:58:39;;;;;;;48.55;34.85;;;;;;;;;;5032731;28;20490;-76
2022/12/10 01:01:08;;;;;;;52.35;34.83;;;;;;;;;;5026201;28;20057;-79
2022/12/10 01:03:33;;;;;;;59.78;44.28;;;;;;;;;;5033173;28;20091;-75
2022/12/10 01:06:07;;;;;;;240.77;58.10;;;;;;;;;;5036685;28;20036;-76
2022/12/10 01:08:32;;;;;;;64.95;43.70;;;;;;;;;;5023233;28;20032;-77
2022/12/10 01:10:57;;;;;;;49.88;35.67;;;;;;;;;;5024889;28;20080;-76
2022/12/10 01:13:23;;;;;;;61.25;41.88;;;;;;;;;;5025362;28;20112;-76
2022/12/10 01:15:48;;;;;;;112.70;53.17;;;;;;;;;;5029644;28;20467;-74
2022/12/10 01:18:13;;;;;;;143.50;42.85;;;;;;;;;;5037069;28;20348;-76
2022/12/10 01:20:38;;;;;;;85.75;41.75;;;;;;;;;;5037403;28;20347;-75
2022/12/10 01:23:04;;;;;;;325.67;72.30;;;;;;;;;;5041952;28;20327;-75
2022/12/10 01:25:30;;;;;;;79.50;45.70;;;;;;;;;;5031993;28;20399;-74
2022/12/10 01:27:56;;;;;;;59.80;37.78;;;;;;;;;;5038514;28;20037;-77
2022/12/10 01:30:21;;;;;;;97.20;45.95;;;;;;;;;;5038354;28;20368;-76
2022/12/10 01:32:47;;;;;;;83.03;42.53;;;;;;;;;;5032686;28;20021;-75
2022/12/10 01:35:12;;;;;;;78.40;51.75;;;;;;;;;;5037161;28;20549;-75
2022/12/10 01:37:37;;;;;;;77.93;48.67;;;;;;;;;;5029397;28;20029;-75
2022/12/10 01:40:03;;;;;;;77.65;42.90;;;;;;;;;;5035738;28;20024;-75
2022/12/10 01:42:28;;;;;;;98.78;49.58;;;;;;;;;;5035393;28;20112;-75
2022/12/10 01:44:58;;;;;;;83.88;47.75;;;;;;;;;;5039060;28;20441;-75
2022/12/10 01:47:24;;;;;;;95.22;50.20;;;;;;;;;;5036050;28;20039;-76
2022/12/10 01:49:49;;;;;;;112.75;51.53;;;;;;;;;;5034448;28;20025;-77
2022/12/10 01:52:14;;;;;;;85.93;50.65;;;;;;;;;;5032523;28;20029;-75
2022/12/10 01:54:42;;;;;;;341.77;73.85;;;;;;;;;;5037571;28;20045;-79
2022/12/10 01:57:18;;;;;;;360.67;66.57;;;;;;;;;;5039977;28;20091;-75
2022/12/10 01:59:45;;;;;;;733.15;103.60;;;;;;;;;;5031989;28;20033;-76
2022/12/10 02:02:17;;;;;;;58.15;36.92;;;;;;;;;;5024631;28;20363;-76
2022/12/10 02:04:42;;;;;;;68.88;34.25;;;;;;;;;;5027764;28;20021;-76
2022/12/10 02:07:14;;;;;;;44.42;30.67;;;;;;;;;;5037669;28;20448;-75
2022/12/10 02:09:46;;;;;;;38.20;24.55;;;;;;;;;;5032596;28;20021;-76
2022/12/10 02:12:11;;;;;;;43.17;28.63;;;;;;;;;;5037651;28;20041;-78
2022/12/10 02:14:51;;;;;;;38.47;27.20;;;;;;;;;;5027450;28;20072;-75
2022/12/10 02:17:22;;;;;;;40.50;29.83;;;;;;;;;;5033538;28;20026;-75
2022/12/10 02:20:07;;;;;;;47.17;34.88;;;;;;;;;;5028671;28;20037;-75
2022/12/10 02:22:35;;;;;;;60.40;38.80;;;;;;;;;;5026518;28;20025;-77
2022/12/10 02:25:01;;;;;;;62.28;44.67;;;;;;;;;;5039851;28;20025;-74
2022/12/10 02:27:37;;;;;;;87.78;42.22;;;;;;;;;;5039282;28;20083;-74
2022/12/10 02:30:03;;;;;;;75.00;37.30;;;;;;;;;;5039064;28;20032;-78
2022/12/10 02:32:33;;;;;;;103.35;37.03;;;;;;;;;;5023587;28;20033;-74
2022/12/10 02:35:03;;;;;;;60.03;37.30;;;;;;;;;;5035883;28;20463;-74
2022/12/10 02:37:32;;;;;;;71.60;41.38;;;;;;;;;;5039884;28;20108;-75
2022/12/10 02:39:59;;;;;;;69.80;46.90;;;;;;;;;;5028658;28;20406;-75
2022/12/10 02:42:26;;;;;;;66.70;45.38;;;;;;;;;;5035384;28;20066;-74
2022/12/10 02:44:52;;;;;;;58.03;42.75;;;;;;;;;;5026731;28;20025;-75
2022/12/10 02:47:18;;;;;;;50.15;36.10;;;;;;;;;;5034537;28;20025;-75
2022/12/10 02:49:45;;;;;;;41.20;31.65;;;;;;;;;;5031153;28;20020;-74
2022/12/10 02:52:15;;;;;;;38.28;28.67;;;;;;;;;;5034050;28;20352;-74
2022/12/10 02:54:40;;;;;;;37.33;30.95;;;;;;;;;;5033083;28;20061;-74
2022/12/10 02:57:23;;;;;;;37.05;29.20;;;;;;;;;;5038405;28;20079;-75
2022/12/10 02:59:52;;;;;;;30.33;25.63;;;;;;;;;;5040530;28;20056;-78
2022/12/10 03:02:22;;;;;;;26.27;21.58;;;;;;;;;;5037323;28;20452;-75
2022/12/10 03:04:50;;;;;;;32.78;25.67;;;;;;;;;;5031268;28;20333;-76
2022/12/10 03:07:23;;;;;;;54.83;39.50;;;;;;;;;;5025863;28;20033;-76
2022/12/10 03:09:53;;;;;;;67.32;47.78;;;;;;;;;;5027354;28;20033;-76
2022/12/10 03:12:21;;;;;;;61.28;44.20;;;;;;;;;;5038697;28;20116;-75
2022/12/10 03:14:47;;;;;;;52.97;34.55;;;;;;;;;;5035630;28;20134;-74
2022/12/10 03:17:13;;;;;;;38.42;29.67;;;;;;;;;;5034627;28;20425;-77
2022/12/10 03:19:47;;;;;;;54.70;38.13;;;;;;;;;;5036803;28;20032;-76
2022/12/10 03:22:13;;;;;;;47.55;28.80;;;;;;;;;;5037873;28;20104;-75
2022/12/10 03:24:40;;;;;;;39.63;29.17;;;;;;;;;;5035785;28;20085;-75
2022/12/10 03:27:06;;;;;;;58.60;40.72;;;;;;;;;;5026928;28;20018;-75
2022/12/10 03:29:34;;;;;;;55.55;36.10;;;;;;;;;;5024249;28;20033;-75
2022/12/10 03:32:00;;;;;;;46.35;28.85;;;;;;;;;;5035240;28;20021;-77
2022/12/10 03:34:25;;;;;;;50.00;36.42;;;;;;;;;;5038904;28;20044;-75
2022/12/10 03:36:51;;;;;;;129.32;64.07;;;;;;;;;;5040972;28;20494;-75
2022/12/10 03:39:17;;;;;;;56.05;39.40;;;;;;;;;;5015792;28;21118;-77
2022/12/10 03:41:42;;;;;;;47.70;33.00;;;;;;;;;;5026478;28;20033;-75
2022/12/10 03:44:07;;;;;;;47.67;34.10;;;;;;;;;;5037329;28;20044;-75
2022/12/10 03:46:33;;;;;;;55.08;36.70;;;;;;;;;;5039120;28;20024;-75
2022/12/10 03:48:59;;;;;;;50.95;35.80;;;;;;;;;;5028695;28;20179;-74
2022/12/10 03:51:24;;;;;;;71.18;49.88;;;;;;;;;;5024937;28;20542;-75
2022/12/10 03:53:50;;;;;;;68.00;54.05;;;;;;;;;;5037349;28;20041;-76
2022/12/10 03:56:16;;;;;;;58.60;36.45;;;;;;;;;;5029040;28;20494;-74
2022/12/10 03:58:41;;;;;;;64.97;33.33;;;;;;;;;;5028655;28;20345;-75
2022/12/10 04:01:07;;;;;;;44.05;31.00;;;;;;;;;;5037026;28;20065;-77
2022/12/10 04:03:36;;;;;;;46.08;30.80;;;;;;;;;;5038379;28;20040;-76
2022/12/10 04:06:09;;;;;;;61.85;43.47;;;;;;;;;;5038337;28;20039;-74
2022/12/10 04:08:34;;;;;;;46.70;32.97;;;;;;;;;;5035062;28;20083;-74
2022/12/10 04:11:07;;;;;;;45.97;31.20;;;;;;;;;;5037906;28;20061;-74
2022/12/10 04:16:29;;;;;;;45.63;32.72;;;;;;;;;;5027706;28;20090;-79
2022/12/10 04:18:58;;;;;;;47.28;34.40;;;;;;;;;;5029324;28;20090;-75
2022/12/10 04:26:55;;;;;;;50.78;38.90;;;;;;;;;;5035328;28;20044;-75
2022/12/10 04:29:24;;;;;;;76.63;41.63;;;;;;;;;;5035835;28;20044;-77
2022/12/10 04:31:50;;;;;;;55.30;40.80;;;;;;;;;;5040077;28;20076;-74
2022/12/10 04:34:15;;;;;;;79.28;55.33;;;;;;;;;;5035749;28;20050;-77
2022/12/10 04:36:40;;;;;;;61.78;44.50;;;;;;;;;;5037236;28;20418;-76
2022/12/10 04:39:06;;;;;;;50.03;32.95;;;;;;;;;;5039210;28;20037;-75
2022/12/10 04:41:31;;;;;;;44.00;30.83;;;;;;;;;;5038865;28;20475;-77
2022/12/10 04:43:56;;;;;;;35.00;25.20;;;;;;;;;;5035874;28;20124;-79
2022/12/10 04:46:22;;;;;;;38.00;26.25;;;;;;;;;;5030159;28;20032;-76
2022/12/10 04:48:47;;;;;;;42.28;30.70;;;;;;;;;;5036839;28;20032;-76
2022/12/10 04:51:12;;;;;;;81.95;49.70;;;;;;;;;;5038344;28;20024;-75
2022/12/10 04:53:38;;;;;;;63.63;41.17;;;;;;;;;;5038267;28;20049;-78
2022/12/10 04:56:05;;;;;;;57.13;40.97;;;;;;;;;;5033556;28;20040;-75
2022/12/10 04:58:30;;;;;;;53.58;39.20;;;;;;;;;;5036849;28;20425;-78
2022/12/10 05:01:06;;;;;;;53.97;39.58;;;;;;;;;;5038211;28;20040;-77
2022/12/10 05:03:32;;;;;;;52.53;39.00;;;;;;;;;;5033750;28;20570;-78
2022/12/10 05:06:04;;;;;;;41.83;34.33;;;;;;;;;;5035131;28;20029;-76
2022/12/10 05:08:29;;;;;;;37.55;28.52;;;;;;;;;;5026545;28;20452;-77
2022/12/10 05:10:55;;;;;;;37.33;29.98;;;;;;;;;;5029666;28;20083;-76
2022/12/10 05:13:21;;;;;;;38.47;31.38;;;;;;;;;;5039028;28;21170;-75
2022/12/10 05:15:46;;;;;;;41.72;32.40;;;;;;;;;;5037410;28;20033;-78
2022/12/10 05:18:11;;;;;;;45.67;32.35;;;;;;;;;;5038127;28;20440;-78
2022/12/10 05:20:37;;;;;;;39.47;32.05;;;;;;;;;;5037349;28;20044;-80
2022/12/10 05:25:54;;;;;;;49.25;39.63;;;;;;;;;;5027155;28;20116;-75
2022/12/10 05:28:21;;;;;;;53.53;42.50;;;;;;;;;;5025699;28;20166;-77
2022/12/10 05:30:46;;;;;;;58.75;45.70;;;;;;;;;;5035878;28;20043;-76
2022/12/10 05:33:11;;;;;;;52.58;41.25;;;;;;;;;;5038518;28;20033;-74
2022/12/10 05:35:37;;;;;;;42.08;33.50;;;;;;;;;;5033779;28;20103;-79
2022/12/10 05:38:02;;;;;;;44.60;34.25;;;;;;;;;;5037844;28;20112;-76
2022/12/10 05:40:27;;;;;;;76.57;57.20;;;;;;;;;;5036407;28;20033;-78
2022/12/10 05:42:52;;;;;;;58.92;45.80;;;;;;;;;;5036381;28;20035;-74
2022/12/10 05:45:18;;;;;;;51.88;43.00;;;;;;;;;;5037277;28;20475;-78
2022/12/10 05:47:43;;;;;;;203.20;150.35;;;;;;;;;;5027574;28;20607;-74
2022/12/10 05:50:09;;;;;;;109.70;85.32;;;;;;;;;;5031535;28;20368;-74
2022/12/10 05:52:34;;;;;;;62.50;47.80;;;;;;;;;;5025302;28;20411;-76
2022/12/10 05:54:59;;;;;;;45.20;36.15;;;;;;;;;;5038049;28;20444;-74
2022/12/10 05:57:25;;;;;;;50.85;38.92;;;;;;;;;;5034374;28;20445;-77
2022/12/10 05:59:50;;;;;;;42.72;33.97;;;;;;;;;;5038029;28;20163;-77
2022/12/10 06:02:16;;;;;;;45.25;37.65;;;;;;;;;;5039479;28;20056;-74
2022/12/10 06:04:41;;;;;;;56.70;45.53;;;;;;;;;;5039541;28;20031;-73
2022/12/10 06:07:06;;;;;;;41.25;35.65;;;;;;;;;;5038964;28;20025;-74
2022/12/10 06:09:31;;;;;;;39.22;32.72;;;;;;;;;;5038570;28;20021;-74
2022/12/10 06:11:57;;;;;;;84.70;62.05;;;;;;;;;;5036813;28;20185;-74
2022/12/10 06:14:22;;;;;;;112.28;79.78;;;;;;;;;;5026372;28;20043;-76
2022/12/10 06:16:48;;;;;;;156.93;115.72;;;;;;;;;;5022665;28;20090;-77
2022/12/10 06:19:13;;;;;;;176.90;138.75;;;;;;;;;;5023217;28;20527;-77
2022/12/10 06:21:38;;;;;;;95.68;76.82;;;;;;;;;;5024987;28;20025;-77
2022/12/10 06:24:04;;;;;;;137.07;108.55;;;;;;;;;;5024072;28;20024;-78
2022/12/10 06:26:29;;;;;;;119.57;96.57;;;;;;;;;;5026478;28;20025;-77
2022/12/10 06:28:54;;;;;;;76.13;60.15;;;;;;;;;;5034024;28;20033;-76
2022/12/10 06:31:20;;;;;;;61.65;50.38;;;;;;;;;;5034316;28;20041;-74
2022/12/10 06:33:45;;;;;;;100.10;72.28;;;;;;;;;;5023233;28;20402;-75
2022/12/10 06:36:12;;;;;;;180.02;116.45;;;;;;;;;;5039858;28;20021;-78
2022/12/10 06:38:37;;;;;;;98.15;66.57;;;;;;;;;;5023365;28;20028;-77
2022/12/10 06:41:07;;;;;;;148.77;94.53;;;;;;;;;;5035286;28;20075;-80
2022/12/10 06:43:32;;;;;;;212.13;128.60;;;;;;;;;;5040964;28;20337;-75
2022/12/10 06:45:57;;;;;;;165.38;102.20;;;;;;;;;;5037410;28;20036;-76
2022/12/10 06:48:23;;;;;;;147.77;95.80;;;;;;;;;;5040112;28;20017;-85
2022/12/10 06:50:48;;;;;;;266.42;149.05;;;;;;;;;;5038959;28;20032;-78
2022/12/10 06:53:13;;;;;;;426.92;263.60;;;;;;;;;;5039904;28;20444;-79
2022/12/10 06:55:39;;;;;;;328.52;206.50;;;;;;;;;;5040888;28;20926;-80
2022/12/10 06:58:04;;;;;;;289.08;205.98;;;;;;;;;;5040421;28;20131;-77
2022/12/10 07:00:30;;;;;;;246.20;185.05;;;;;;;;;;5026613;28;20025;-76
2022/12/10 07:02:55;;;;;;;133.77;109.18;;;;;;;;;;5029071;28;20036;-75
2022/12/10 07:05:20;;;;;;;125.20;95.25;;;;;;;;;;5039344;28;20035;-76
2022/12/10 07:07:46;;;;;;;86.93;72.78;;;;;;;;;;5033670;28;20163;-76
2022/12/10 07:10:11;;;;;;;178.30;132.60;;;;;;;;;;5032760;28;20136;-75
2022/12/10 07:12:36;;;;;;;220.05;163.15;;;;;;;;;;5040545;28;20021;-76
2022/12/10 07:15:02;;;;;;;137.73;105.82;;;;;;;;;;5039368;28;20029;-77
2022/12/10 07:17:28;;;;;;;150.65;114.07;;;;;;;;;;5038580;28;20034;-77
2022/12/10 07:19:53;;;;;;;199.82;150.98;;;;;;;;;;5033490;28;20029;-76
2022/12/10 07:22:19;;;;;;;196.50;144.20;;;;;;;;;;5020719;28;20462;-77
2022/12/10 07:24:44;;;;;;;66.25;52.78;;;;;;;;;;5022124;28;20444;-77
2022/12/10 07:27:09;;;;;;;62.90;50.65;;;;;;;;;;5025955;28;21288;-76
2022/12/10 07:29:35;;;;;;;293.45;202.35;;;;;;;;;;5037790;28;20029;-79
2022/12/10 07:32:00;;;;;;;147.15;110.35;;;;;;;;;;5021870;28;20025;-78
2022/12/10 07:34:25;;;;;;;118.75;85.93;;;;;;;;;;5020100;28;20030;-77
2022/12/10 07:36:51;;;;;;;155.15;116.85;;;;;;;;;;5019982;28;20028;-80
2022/12/10 07:39:19;;;;;;;199.32;151.15;;;;;;;;;;5030384;28;20028;-76
2022/12/10 07:41:52;;;;;;;134.05;107.93;;;;;;;;;;5027568;28;20029;-77
2022/12/10 07:44:19;;;;;;;89.60;75.90;;;;;;;;;;5040203;28;20029;-79
2022/12/10 07:46:44;;;;;;;127.05;108.80;;;;;;;;;;5038364;28;20064;-76
2022/12/10 07:49:10;;;;;;;141.55;116.93;;;;;;;;;;5038847;28;20110;-76
2022/12/10 07:51:35;;;;;;;115.45;93.50;;;;;;;;;;5040203;28;20035;-77
2022/12/10 07:54:01;;;;;;;224.60;167.38;;;;;;;;;;5028730;28;20098;-75
2022/12/10 07:56:26;;;;;;;165.52;134.68;;;;;;;;;;5027309;28;20049;-77
2022/12/10 07:58:53;;;;;;;110.63;91.13;;;;;;;;;;5038555;28;20858;-79
2022/12/10 08:01:22;;;;;;;88.43;77.00;;;;;;;;;;5036707;28;20837;-77
2022/12/10 08:03:47;;;;;;;83.13;74.00;;;;;;;;;;5037131;28;20024;-77
2022/12/10 08:06:14;;;;;;;102.93;89.00;;;;;;;;;;5037629;28;20013;-78
2022/12/10 08:08:40;;;;;;;106.50;92.68;;;;;;;;;;5032117;28;20032;-74
2022/12/10 08:11:05;;;;;;;101.22;88.22;;;;;;;;;;5023840;28;20049;-76
2022/12/10 08:13:31;;;;;;;119.13;106.05;;;;;;;;;;5030953;28;20029;-73
2022/12/10 08:16:03;;;;;;;87.32;74.75;;;;;;;;;;5031585;28;20040;-76
2022/12/10 08:18:29;;;;;;;84.63;67.00;;;;;;;;;;5025499;28;20039;-76
2022/12/10 08:20:55;;;;;;;84.85;75.55;;;;;;;;;;5037543;28;20536;-77
2022/12/10 08:23:20;;;;;;;62.25;53.75;;;;;;;;;;5036753;28;20032;-77
2022/12/10 08:25:45;;;;;;;79.35;69.65;;;;;;;;;;5037605;28;20120;-76
2022/12/10 08:28:11;;;;;;;80.30;71.40;;;;;;;;;;5035271;28;20029;-76
2022/12/10 08:30:36;;;;;;;60.28;53.70;;;;;;;;;;5038857;28;20111;-74
2022/12/10 08:33:01;;;;;;;50.28;44.72;;;;;;;;;;5035852;28;20322;-75
2022/12/10 08:35:27;;;;;;;50.42;44.92;;;;;;;;;;5032994;28;20459;-76
2022/12/10 08:37:52;;;;;;;62.70;56.20;;;;;;;;;;5037039;28;20033;-78
2022/12/10 08:40:17;;;;;;;48.25;43.03;;;;;;;;;;5025721;28;20324;-77
2022/12/10 08:42:43;;;;;;;50.60;44.75;;;;;;;;;;5037993;28;20115;-76
2022/12/10 08:45:08;;;;;;;37.33;32.85;;;;;;;;;;5029452;28;22817;-76
2022/12/10 08:47:33;;;;;;;37.88;33.53;;;;;;;;;;5026493;28;20024;-77
2022/12/10 08:49:59;;;;;;;55.75;48.22;;;;;;;;;;5037703;28;20345;-77
2022/12/10 08:52:24;;;;;;;88.20;75.35;;;;;;;;;;5035929;28;20052;-76
2022/12/10 08:54:49;;;;;;;88.35;78.40;;;;;;;;;;5032588;28;20041;-77
2022/12/10 08:57:15;;;;;;;89.15;77.40;;;;;;;;;;5017181;28;20495;-76
2022/12/10 08:59:40;;;;;;;85.20;75.90;;;;;;;;;;5036167;28;20318;-75
2022/12/10 09:02:07;;;;;;;93.95;83.88;;;;;;;;;;5037121;28;20052;-76
2022/12/10 09:04:33;;;;;;;125.55;110.07;;;;;;;;;;5032324;28;20367;-76
2022/12/10 09:06:58;;;;;;;91.38;81.60;;;;;;;;;;5030251;28;20025;-78
2022/12/10 09:09:23;;;;;;;68.85;60.85;;;;;;;;;;5025142;28;20076;-76
2022/12/10 09:11:49;;;;;;;76.50;68.20;;;;;;;;;;5033716;28;20065;-76
2022/12/10 09:14:14;;;;;;;82.97;74.25;;;;;;;;;;5024097;28;20033;-75
2022/12/10 09:16:40;;;;;;;108.15;96.43;;;;;;;;;;5023680;28;20099;-75
2022/12/10 09:19:06;;;;;;;110.65;94.28;;;;;;;;;;5023965;28;20025;-75
2022/12/10 09:21:31;;;;;;;102.38;88.57;;;;;;;;;;5015815;28;20021;-78
2022/12/10 09:23:57;;;;;;;144.52;118.97;;;;;;;;;;5021058;28;20089;-77
2022/12/10 09:26:22;;;;;;;125.63;106.82;;;;;;;;;;5019329;28;20051;-79
2022/12/10 09:28:48;;;;;;;127.43;106.95;;;;;;;;;;5029057;28;20056;-80
2022/12/10 09:31:15;;;;;;;84.20;70.18;;;;;;;;;;5036132;28;20065;-81
2022/12/10 09:33:41;;;;;;;80.57;67.22;;;;;;;;;;5024585;28;20024;-78
2022/12/10 09:36:07;;;;;;;55.50;49.38;;;;;;;;;;5037871;28;20025;-79
2022/12/10 09:38:39;;;;;;;46.03;41.35;;;;;;;;;;5012676;28;20401;-79
2022/12/10 09:41:15;;;;;;;40.00;35.78;;;;;;;;;;5025381;28;20029;-79
2022/12/10 09:43:46;;;;;;;40.40;36.22;;;;;;;;;;5032761;28;20040;-81
2022/12/10 09:46:18;;;;;;;42.03;37.65;;;;;;;;;;5016694;28;20557;-80
2022/12/10 09:48:46;;;;;;;49.53;40.60;;;;;;;;;;5025082;28;20033;-79
2022/12/10 09:51:17;;;;;;;42.60;38.05;;;;;;;;;;5022415;28;20107;-81
2022/12/10 09:53:44;;;;;;;48.65;43.78;;;;;;;;;;5027786;28;20032;-81
2022/12/10 09:56:36;;;;;;;50.30;44.80;;;;;;;;;;5037665;28;20037;-78
2022/12/10 09:59:06;;;;;;;55.00;48.83;;;;;;;;;;5034775;28;20218;-81
2022/12/10 10:01:33;;;;;;;56.83;49.20;;;;;;;;;;5037428;28;20035;-78
2022/12/10 10:03:58;;;;;;;83.88;71.45;;;;;;;;;;5028861;28;20135;-80
2022/12/10 10:06:26;;;;;;;61.38;54.25;;;;;;;;;;5032446;28;20107;-79
2022/12/10 10:08:53;;;;;;;47.75;42.85;;;;;;;;;;5018946;28;20183;-76
2022/12/10 10:11:21;;;;;;;34.92;30.85;;;;;;;;;;5025746;28;20053;-78
2022/12/10 10:13:56;;;;;;;31.98;28.58;;;;;;;;;;5034651;28;20021;-76
2022/12/10 10:16:27;;;;;;;34.08;30.50;;;;;;;;;;5035345;28;20065;-77
2022/12/10 10:18:56;;;;;;;43.60;38.92;;;;;;;;;;5038993;28;20447;-77
2022/12/10 10:21:32;;;;;;;93.27;65.60;;;;;;;;;;5038756;28;20025;-78
2022/12/10 10:23:58;;;;;;;169.85;120.28;;;;;;;;;;5038525;28;20021;-77
2022/12/10 10:26:25;;;;;;;131.70;101.40;;;;;;;;;;5038573;28;20110;-76
2022/12/10 10:28:54;;;;;;;62.92;50.08;;;;;;;;;;5036493;28;20452;-76
2022/12/10 10:31:21;;;;;;;67.70;55.83;;;;;;;;;;5039026;28;20102;-77
2022/12/10 10:33:56;;;;;;;84.30;75.07;;;;;;;;;;5039813;28;20033;-78
2022/12/10 10:36:23;;;;;;;81.07;72.25;;;;;;;;;;5039747;28;20049;-78
2022/12/10 10:38:48;;;;;;;72.57;65.18;;;;;;;;;;5039863;28;20036;-76
2022/12/10 10:41:14;;;;;;;61.55;54.88;;;;;;;;;;5037603;28;20029;-77
2022/12/10 10:43:41;;;;;;;89.07;79.25;;;;;;;;;;5041407;28;20029;-76
2022/12/10 10:46:12;;;;;;;161.30;130.45;;;;;;;;;;5040549;28;20021;-77
2022/12/10 10:48:38;;;;;;;155.73;125.63;;;;;;;;;;5038742;28;20132;-75
2022/12/10 10:51:12;;;;;;;146.40;119.68;;;;;;;;;;5038978;28;20867;-77
2022/12/10 10:53:43;;;;;;;136.25;121.10;;;;;;;;;;5037703;28;20423;-76
2022/12/10 10:56:16;;;;;;;97.40;84.70;;;;;;;;;;5039936;28;20021;-75
2022/12/10 10:58:53;;;;;;;53.88;48.15;;;;;;;;;;5040225;28;20021;-76
2022/12/10 11:01:19;;;;;;;50.80;45.42;;;;;;;;;;5038827;28;20352;-76
2022/12/10 11:03:49;;;;;;;46.67;41.72;;;;;;;;;;5038068;28;20021;-76
2022/12/10 11:06:14;;;;;;;39.42;35.47;;;;;;;;;;5039574;28;20025;-78
2022/12/10 11:08:41;;;;;;;48.60;43.33;;;;;;;;;;5037798;28;20428;-75
2022/12/10 11:11:12;;;;;;;52.20;43.58;;;;;;;;;;5037982;28;20061;-76
2022/12/10 11:13:37;;;;;;;42.00;33.85;;;;;;;;;;5038581;28;20025;-78
2022/12/10 11:16:12;;;;;;;40.83;35.22;;;;;;;;;;5037796;28;20025;-76
2022/12/10 11:18:42;;;;;;;40.55;36.25;;;;;;;;;;5039214;28;20102;-76
2022/12/10 11:21:08;;;;;;;59.35;49.17;;;;;;;;;;5031908;28;20037;-75
2022/12/10 11:23:40;;;;;;;52.10;43.85;;;;;;;;;;5034848;28;20060;-77
2022/12/10 11:26:21;;;;;;;51.20;45.70;;;;;;;;;;5036697;28;20046;-76
2022/12/10 11:29:08;;;;;;;43.83;39.17;;;;;;;;;;5035033;28;20440;-73
2022/12/10 11:31:39;;;;;;;42.63;38.05;;;;;;;;;;5036655;28;20021;-76
2022/12/10 11:34:10;;;;;;;58.45;43.15;;;;;;;;;;5035351;28;20055;-76
2022/12/10 11:36:35;;;;;;;64.38;49.20;;;;;;;;;;5038194;28;20035;-78
2022/12/10 11:39:10;;;;;;;70.43;55.28;;;;;;;;;;5036533;28;20036;-78
2022/12/10 11:41:41;;;;;;;39.88;33.90;;;;;;;;;;5030531;28;20029;-78
2022/12/10 11:44:06;;;;;;;54.78;47.85;;;;;;;;;;5027163;28;20020;-77
2022/12/10 11:46:51;;;;;;;56.17;50.25;;;;;;;;;;5039097;28;20119;-79
2022/12/10 11:49:19;;;;;;;70.05;61.47;;;;;;;;;;5037065;28;20425;-79
2022/12/10 11:52:00;;;;;;;67.30;56.25;;;;;;;;;;5036871;28;20032;-77
2022/12/10 11:54:29;;;;;;;90.88;76.97;;;;;;;;;;5035463;28;20048;-75
2022/12/10 11:57:02;;;;;;;43.38;37.55;;;;;;;;;;5035159;28;20094;-78
2022/12/10 11:59:37;;;;;;;41.78;37.28;;;;;;;;;;5035167;28;20462;-76
2022/12/10 12:02:21;;;;;;;47.58;40.80;;;;;;;;;;5021024;28;20030;-77
2022/12/10 12:05:05;;;;;;;52.67;42.95;;;;;;;;;;5024399;28;20051;-78
2022/12/10 12:07:33;;;;;;;70.30;58.30;;;;;;;;;;5023694;28;20035;-78
2022/12/10 12:10:01;;;;;;;66.15;57.25;;;;;;;;;;5023662;28;20029;-78
2022/12/10 12:12:29;;;;;;;52.85;44.97;;;;;;;;;;5023418;28;20029;-79
2022/12/10 12:14:58;;;;;;;41.10;36.63;;;;;;;;;;5024625;28;20051;-79
2022/12/10 12:17:40;;;;;;;61.55;54.92;;;;;;;;;;5032430;28;20032;-79
2022/12/10 12:20:18;;;;;;;59.53;52.10;;;;;;;;;;5036885;28;20128;-76
2022/12/10 12:22:47;;;;;;;52.30;46.70;;;;;;;;;;5037258;28;20104;-79
2022/12/10 12:25:20;;;;;;;44.33;39.47;;;;;;;;;;5036928;28;20028;-78
2022/12/10 12:27:49;;;;;;;65.88;55.55;;;;;;;;;;5031142;28;20025;-80
2022/12/10 12:30:18;;;;;;;61.78;51.42;;;;;;;;;;5021952;28;20534;-79
2022/12/10 12:33:10;;;;;;;95.18;84.72;;;;;;;;;;5004902;28;20765;-76
2022/12/10 12:35:47;;;;;;;64.32;55.38;;;;;;;;;;5024631;28;20049;-79
2022/12/10 12:38:26;;;;;;;64.85;54.05;;;;;;;;;;5026213;28;20444;-81
2022/12/10 12:40:51;;;;;;;;;;;;;;;;;;5034637;28;20045;-77
2022/12/10 12:43:23;;;;;;;66.50;58.07;;;;;;;;;;5036806;28;19981;-77
2022/12/10 12:45:49;;;;;;;64.25;54.15;;;;;;;;;;5036492;28;20048;-78
2022/12/10 12:48:28;;;;;;;54.03;48.13;;;;;;;;;;5034769;28;20037;-78
2022/12/10 12:51:08;;;;;;;41.92;36.42;;;;;;;;;;5036028;28;20025;-77
2022/12/10 12:53:34;;;;;;;47.90;42.67;;;;;;;;;;5030130;28;20021;-78
2022/12/10 12:56:19;;;;;;;37.33;33.42;;;;;;;;;;5022525;28;20044;-83
2022/12/10 12:58:59;;;;;;;29.20;26.38;;;;;;;;;;5025741;28;20025;-80
2022/12/10 13:01:51;;;;;;;27.75;25.15;;;;;;;;;;5023915;28;20025;-76
2022/12/10 13:04:17;;;;;;;25.92;23.23;;;;;;;;;;5023589;28;20120;-78
2022/12/10 13:07:02;;;;;;;25.42;22.83;;;;;;;;;;5023671;28;20174;-80
2022/12/10 13:09:29;;;;;;;28.25;25.38;;;;;;;;;;5020979;28;20030;-79
2022/12/10 13:12:04;;;;;;;32.22;29.02;;;;;;;;;;5025949;28;20841;-78
2022/12/10 13:14:31;;;;;;;31.05;27.85;;;;;;;;;;5025080;28;20341;-76
2022/12/10 13:17:01;;;;;;;49.80;44.55;;;;;;;;;;5031078;28;20025;-78
2022/12/10 13:19:28;;;;;;;40.22;35.10;;;;;;;;;;5030500;28;20028;-77
2022/12/10 13:21:56;;;;;;;45.58;40.67;;;;;;;;;;5023582;28;20343;-77
2022/12/10 13:24:44;;;;;;;32.88;29.48;;;;;;;;;;5031477;28;20025;-80
2022/12/10 13:27:18;;;;;;;33.47;29.95;;;;;;;;;;5025651;28;20044;-81
2022/12/10 13:29:54;;;;;;;32.30;28.90;;;;;;;;;;5029416;28;20033;-81
2022/12/10 13:32:23;;;;;;;33.38;28.88;;;;;;;;;;5032683;28;20028;-81
2022/12/10 13:34:49;;;;;;;;;;;;;;;;;;5035202;28;20068;-78
2022/12/10 13:37:27;;;;;;;40.92;35.88;;;;;;;;;;5024668;28;19955;-78
2022/12/10 13:39:54;;;;;;;30.95;27.60;;;;;;;;;;5036218;28;20021;-82
2022/12/10 13:45:22;;;;;;;31.95;28.65;;;;;;;;;;5027312;28;20459;-78
2022/12/10 13:47:52;;;;;;;35.72;31.92;;;;;;;;;;5037821;28;20025;-78
2022/12/10 13:50:29;;;;;;;29.83;26.70;;;;;;;;;;5028727;28;20360;-79
2022/12/10 13:52:54;;;;;;;38.28;30.30;;;;;;;;;;5036338;28;20029;-82
2022/12/10 13:55:23;;;;;;;32.47;28.35;;;;;;;;;;5023923;28;20371;-83
2022/12/10 13:57:51;;;;;;;37.22;33.28;;;;;;;;;;5024068;28;20078;-78
2022/12/10 14:00:18;;;;;;;48.80;43.60;;;;;;;;;;5028879;28;20029;-78
2022/12/10 14:02:49;;;;;;;41.95;37.65;;;;;;;;;;5031446;28;20119;-79
2022/12/10 14:05:15;;;;;;;37.50;33.55;;;;;;;;;;5026607;28;20032;-79
2022/12/10 14:07:43;;;;;;;35.22;31.48;;;;;;;;;;5026548;28;20036;-77
2022/12/10 14:10:14;;;;;;;36.80;32.87;;;;;;;;;;5022542;28;20440;-79
2022/12/10 14:12:41;;;;;;;34.78;31.08;;;;;;;;;;5021853;28;20571;-79
2022/12/10 14:15:18;;;;;;;42.03;34.58;;;;;;;;;;5023089;28;20067;-78
2022/12/10 14:17:44;;;;;;;38.22;33.75;;;;;;;;;;5024635;28;20029;-77
2022/12/10 14:20:23;;;;;;;50.75;40.45;;;;;;;;;;5028917;28;20093;-78
2022/12/10 14:22:49;;;;;;;211.00;132.65;;;;;;;;;;5020272;28;20028;-80
2022/12/10 14:25:17;;;;;;;98.80;86.35;;;;;;;;;;5021862;28;20476;-78
2022/12/10 14:27:43;;;;;;;39.22;35.10;;;;;;;;;;5022161;28;20053;-79
2022/12/10 14:30:20;;;;;;;36.13;32.22;;;;;;;;;;5021683;28;20384;-79
2022/12/10 14:32:46;;;;;;;34.58;30.90;;;;;;;;;;5021383;28;20112;-80